Time;durP1;ratioP1;P1;durP2;ratioP2;P2;SDS_P1;SDS_P2;PMS_P1;PMS_P2;Temp;Humidity;BMP_temperature;BMP_pressure;BME280_temperature;BME280_humidity;BME280_pressure;Samples;Min_cycle;Max_cycle;Signal;HPM_P1;HPM_P2
2023/09/06 00:01:19;;;;;;;35.87;34.27;;;25.30;82.10;;;;;;5006876;28;20549;-50
2023/09/06 00:03:47;;;;;;;35.27;33.77;;;25.30;82.20;;;;;;5006184;28;20540;-50
2023/09/06 00:06:14;;;;;;;34.10;32.40;;;25.30;82.10;;;;;;4995222;28;20505;-53
2023/09/06 00:08:41;;;;;;;34.17;32.57;;;25.20;82.40;;;;;;5003389;28;20473;-51
2023/09/06 00:11:08;;;;;;;35.00;33.40;;;25.20;82.40;;;;;;5005842;28;20486;-50
2023/09/06 00:13:36;;;;;;;35.67;34.07;;;25.20;82.50;;;;;;5004352;28;20451;-53
2023/09/06 00:16:07;;;;;;;36.67;35.07;;;25.20;82.60;;;;;;5004973;28;20530;-50
2023/09/06 00:18:35;;;;;;;35.00;33.40;;;25.20;82.50;;;;;;5006493;28;20482;-50
2023/09/06 00:21:05;;;;;;;35.63;34.10;;;25.20;82.80;;;;;;5004596;28;20553;-50
2023/09/06 00:23:33;;;;;;;34.97;33.40;;;25.20;82.90;;;;;;5003225;28;20490;-53
2023/09/06 00:26:00;;;;;;;36.07;34.47;;;25.20;83.10;;;;;;5004406;28;20527;-50
2023/09/06 00:28:27;;;;;;;40.50;38.70;;;25.20;83.20;;;;;;5005595;28;20467;-51
2023/09/06 00:30:56;;;;;;;37.80;35.90;;;25.20;83.40;;;;;;5005494;28;20489;-50
2023/09/06 00:33:26;;;;;;;37.03;35.00;;;25.20;83.50;;;;;;5012154;28;20465;-50
2023/09/06 00:35:54;;;;;;;34.10;32.60;;;25.20;83.50;;;;;;5005532;28;20877;-54
2023/09/06 00:38:25;;;;;;;36.23;34.33;;;25.10;83.40;;;;;;5002879;28;20884;-52
2023/09/06 00:40:53;;;;;;;35.37;33.67;;;25.20;83.70;;;;;;5002909;28;20463;-51
2023/09/06 00:43:20;;;;;;;35.80;34.10;;;25.10;83.90;;;;;;5009477;28;20530;-50
2023/09/06 00:45:50;;;;;;;35.40;33.60;;;25.10;84.60;;;;;;5002656;28;21093;-52
2023/09/06 00:48:21;;;;;;;34.20;32.50;;;25.10;83.70;;;;;;4995058;28;20443;-51
2023/09/06 00:50:51;;;;;;;35.30;33.70;;;25.10;83.90;;;;;;5002678;28;20463;-54
2023/09/06 00:53:18;;;;;;;34.30;32.70;;;25.10;84.00;;;;;;5009116;28;20456;-51
2023/09/06 00:55:48;;;;;;;34.10;32.60;;;25.10;84.10;;;;;;5005760;28;20466;-54
2023/09/06 00:58:17;;;;;;;34.97;33.27;;;25.00;84.40;;;;;;4994362;28;20482;-53
2023/09/06 01:00:44;;;;;;;34.77;33.23;;;25.10;84.60;;;;;;5002200;28;20490;-54
2023/09/06 01:03:11;;;;;;;34.63;33.03;;;25.00;84.60;;;;;;5011219;28;20450;-52
2023/09/06 01:05:42;;;;;;;35.53;33.83;;;25.10;85.00;;;;;;5005509;28;20445;-52
2023/09/06 01:08:14;;;;;;;35.10;33.50;;;25.00;84.80;;;;;;5006164;28;20445;-55
2023/09/06 01:10:40;;;;;;;35.60;34.00;;;25.00;85.20;;;;;;4997498;28;20491;-50
2023/09/06 01:13:09;;;;;;;35.70;34.00;;;25.00;85.30;;;;;;5004380;28;20482;-55
2023/09/06 01:15:38;;;;;;;35.70;34.10;;;25.00;85.50;;;;;;5005395;28;20874;-53
2023/09/06 01:18:06;;;;;;;35.37;33.73;;;25.00;85.70;;;;;;5003384;28;20518;-51
2023/09/06 01:20:39;;;;;;;33.30;31.80;;;25.00;85.90;;;;;;5001945;28;20474;-51
2023/09/06 01:23:16;;;;;;;34.77;33.13;;;25.00;85.80;;;;;;5004061;28;20490;-53
2023/09/06 01:25:45;;;;;;;34.67;33.07;;;25.00;86.00;;;;;;5005167;28;20430;-50
2023/09/06 01:28:12;;;;;;;34.90;33.20;;;25.00;86.30;;;;;;5002221;28;20467;-51
2023/09/06 01:30:39;;;;;;;36.53;34.50;;;25.00;86.20;;;;;;5006039;28;20494;-51
2023/09/06 01:33:06;;;;;;;35.10;33.50;;;25.00;86.40;;;;;;5003745;28;20475;-51
2023/09/06 01:35:33;;;;;;;34.67;33.07;;;25.00;86.50;;;;;;5004843;28;20438;-51
2023/09/06 01:38:00;;;;;;;34.07;32.47;;;25.00;86.70;;;;;;5003655;28;20517;-54
2023/09/06 01:40:27;;;;;;;34.50;32.90;;;25.00;86.70;;;;;;5001496;28;20509;-53
2023/09/06 01:42:55;;;;;;;34.33;32.70;;;25.00;86.80;;;;;;5001739;28;20522;-54
2023/09/06 01:45:22;;;;;;;35.80;34.10;;;25.00;86.90;;;;;;5004806;28;20470;-53
2023/09/06 01:47:49;;;;;;;35.57;33.60;;;25.00;86.90;;;;;;5004834;28;20469;-51
2023/09/06 01:50:19;;;;;;;36.40;34.73;;;25.00;87.10;;;;;;5001494;28;21060;-51
2023/09/06 01:52:46;;;;;;;35.13;33.53;;;25.00;87.50;;;;;;5001409;28;20454;-53
2023/09/06 01:55:13;;;;;;;33.90;32.30;;;25.00;87.30;;;;;;5004003;28;20462;-50
2023/09/06 01:57:40;;;;;;;34.43;32.93;;;25.00;87.30;;;;;;5004473;28;20906;-53
2023/09/06 02:02:44;;;;;;;35.73;34.13;;;24.90;87.30;;;;;;5475796;23;20483;-59
2023/09/06 02:05:10;;;;;;;35.03;33.47;;;24.90;87.50;;;;;;5077800;28;20930;-58
2023/09/06 02:07:37;;;;;;;33.07;31.53;;;24.90;87.60;;;;;;5072145;28;20484;-57
2023/09/06 02:10:05;;;;;;;34.30;32.80;;;25.00;87.70;;;;;;5072080;28;20475;-59
2023/09/06 02:12:32;;;;;;;35.10;33.50;;;24.90;87.60;;;;;;5060448;28;20499;-58
2023/09/06 02:14:59;;;;;;;34.13;32.63;;;24.90;87.70;;;;;;5052057;28;20475;-58
2023/09/06 02:17:26;;;;;;;33.53;31.83;;;24.90;87.80;;;;;;5051982;28;20476;-53
2023/09/06 02:19:54;;;;;;;36.17;34.60;;;24.90;87.80;;;;;;5051988;28;20506;-55
2023/09/06 02:22:21;;;;;;;34.07;32.57;;;24.90;87.90;;;;;;5051502;28;20492;-52
2023/09/06 02:24:48;;;;;;;34.63;32.93;;;24.90;87.90;;;;;;5051912;28;20467;-52
2023/09/06 02:27:15;;;;;;;35.23;33.60;;;24.90;88.20;;;;;;5051667;28;20476;-51
2023/09/06 02:29:42;;;;;;;35.20;33.60;;;24.90;88.20;;;;;;5051672;28;20471;-52
2023/09/06 02:32:09;;;;;;;35.03;33.43;;;24.90;88.10;;;;;;5051544;28;20464;-52
2023/09/06 02:34:36;;;;;;;34.20;32.60;;;24.80;88.10;;;;;;5043726;28;20931;-52
2023/09/06 02:37:04;;;;;;;35.60;33.83;;;24.90;88.10;;;;;;5051800;28;20858;-53
2023/09/06 02:39:32;;;;;;;35.10;33.50;;;24.80;87.90;;;;;;5051462;28;20480;-50
2023/09/06 02:41:59;;;;;;;35.53;33.83;;;24.80;88.00;;;;;;5051251;28;20460;-50
2023/09/06 02:44:26;;;;;;;35.03;33.43;;;24.80;88.20;;;;;;5051471;28;20973;-55
2023/09/06 02:46:53;;;;;;;34.90;33.30;;;24.80;88.10;;;;;;5051471;28;20445;-51
2023/09/06 02:49:20;;;;;;;34.50;32.90;;;24.80;88.00;;;;;;5051348;28;20766;-51
2023/09/06 02:51:47;;;;;;;33.30;31.87;;;24.80;88.00;;;;;;5050780;28;20484;-50
2023/09/06 02:54:17;;;;;;;35.33;33.73;;;24.80;88.00;;;;;;5051293;28;20479;-54
2023/09/06 02:56:45;;;;;;;32.73;31.23;;;24.80;88.30;;;;;;5051369;28;20444;-51
2023/09/06 02:59:14;;;;;;;33.30;31.70;;;24.80;88.30;;;;;;5051072;28;20583;-55
2023/09/06 03:01:44;;;;;;;32.90;31.30;;;24.70;88.10;;;;;;5051018;28;20464;-52
2023/09/06 03:04:13;;;;;;;36.20;34.40;;;24.70;87.90;;;;;;5050998;28;20456;-52
2023/09/06 03:06:43;;;;;;;37.33;35.60;;;24.70;87.90;;;;;;5051163;28;20962;-50
2023/09/06 03:09:10;;;;;;;35.60;33.90;;;24.70;87.80;;;;;;5051288;28;20451;-50
2023/09/06 03:11:38;;;;;;;35.20;33.60;;;24.70;87.80;;;;;;5042893;28;20460;-50
2023/09/06 03:14:05;;;;;;;36.13;34.53;;;24.70;87.70;;;;;;5048530;28;20456;-50
2023/09/06 03:16:38;;;;;;;37.73;36.03;;;24.70;87.70;;;;;;5051180;28;20880;-54
2023/09/06 03:19:09;;;;;;;35.83;33.97;;;24.70;87.80;;;;;;5051092;28;20506;-52
2023/09/06 03:21:37;;;;;;;37.40;35.47;;;24.70;88.10;;;;;;5050833;28;20470;-50
2023/09/06 03:24:11;;;;;;;35.17;33.47;;;24.70;88.10;;;;;;5050948;28;20488;-50
2023/09/06 03:26:43;;;;;;;38.30;36.23;;;24.70;88.00;;;;;;5043305;28;20446;-52
2023/09/06 03:29:11;;;;;;;35.60;34.00;;;24.70;88.10;;;;;;5051143;28;21019;-52
2023/09/06 03:31:42;;;;;;;37.60;35.80;;;24.70;88.00;;;;;;5042857;28;20565;-50
2023/09/06 03:34:13;;;;;;;35.33;33.57;;;24.70;88.10;;;;;;5045211;28;20456;-54
2023/09/06 03:36:41;;;;;;;38.13;36.43;;;24.70;88.30;;;;;;5043616;28;20448;-50
2023/09/06 03:39:13;;;;;;;37.30;35.53;;;24.70;88.20;;;;;;5050953;28;20486;-50
2023/09/06 03:41:41;;;;;;;36.90;35.17;;;24.60;88.10;;;;;;5042892;28;20455;-50
2023/09/06 03:44:08;;;;;;;37.43;35.73;;;24.60;88.30;;;;;;5050729;28;20829;-54
2023/09/06 03:46:35;;;;;;;37.10;35.40;;;24.60;88.30;;;;;;5050411;28;20476;-53
2023/09/06 03:49:05;;;;;;;36.70;35.00;;;24.60;88.40;;;;;;5046192;28;20440;-50
2023/09/06 03:51:32;;;;;;;35.07;33.47;;;24.70;88.40;;;;;;5050573;28;20545;-51
2023/09/06 03:54:01;;;;;;;36.40;34.53;;;24.60;88.30;;;;;;5050372;28;20456;-52
2023/09/06 03:56:29;;;;;;;37.63;35.60;;;24.60;88.30;;;;;;5050898;28;20486;-50
2023/09/06 03:59:00;;;;;;;34.60;32.90;;;24.60;88.50;;;;;;5050695;28;20487;-52
2023/09/06 04:01:27;;;;;;;41.00;39.20;;;24.60;88.40;;;;;;5050614;28;20436;-50
2023/09/06 04:03:54;;;;;;;41.80;39.60;;;24.60;88.30;;;;;;5052456;28;20862;-53
2023/09/06 04:06:21;;;;;;;38.10;36.30;;;24.60;88.40;;;;;;5054049;28;20451;-51
2023/09/06 04:08:53;;;;;;;42.10;40.20;;;24.60;88.50;;;;;;5054512;28;20475;-54
2023/09/06 04:11:22;;;;;;;40.70;38.90;;;24.60;90.20;;;;;;5054054;28;20444;-54
2023/09/06 04:13:51;;;;;;;45.23;43.63;;;24.70;90.40;;;;;;5047240;28;20455;-54
2023/09/06 04:16:31;;;;;;;45.57;43.87;;;24.70;90.40;;;;;;5053969;28;20439;-53
2023/09/06 04:19:01;;;;;;;47.13;45.23;;;24.70;90.20;;;;;;5054389;28;20880;-50
2023/09/06 04:21:31;;;;;;;46.07;44.13;;;24.70;90.40;;;;;;5049875;28;20452;-49
2023/09/06 04:24:00;;;;;;;46.87;45.07;;;24.80;90.30;;;;;;5048045;28;20452;-51
2023/09/06 04:26:29;;;;;;;46.53;44.83;;;24.80;90.00;;;;;;5053514;28;20863;-49
2023/09/06 04:29:02;;;;;;;46.23;44.53;;;24.90;90.10;;;;;;5053523;28;20523;-56
2023/09/06 04:31:33;;;;;;;47.40;45.70;;;24.90;89.70;;;;;;5052570;28;20448;-52
2023/09/06 04:34:04;;;;;;;45.80;44.03;;;25.00;89.30;;;;;;5053789;28;20549;-55
2023/09/06 04:36:31;;;;;;;45.17;43.50;;;25.10;88.90;;;;;;5054040;28;20527;-55
2023/09/06 04:39:02;;;;;;;47.20;45.40;;;25.20;88.90;;;;;;5053876;28;20472;-53
2023/09/06 04:41:31;;;;;;;45.10;43.50;;;25.20;87.90;;;;;;5053516;28;20772;-50
2023/09/06 04:43:59;;;;;;;46.43;44.73;;;25.30;87.50;;;;;;5053608;28;20452;-50
2023/09/06 04:46:27;;;;;;;45.97;44.30;;;25.40;87.10;;;;;;5053762;28;20468;-53
2023/09/06 04:48:56;;;;;;;46.87;44.77;;;25.50;87.30;;;;;;5053815;28;20510;-51
2023/09/06 04:51:23;;;;;;;46.90;44.80;;;25.50;88.30;;;;;;5053566;28;20531;-53
2023/09/06 04:53:50;;;;;;;47.77;45.47;;;25.60;89.50;;;;;;5053787;28;20499;-50
2023/09/06 04:56:17;;;;;;;51.43;48.97;;;25.60;90.00;;;;;;5052807;28;20453;-53
2023/09/06 04:58:45;;;;;;;50.27;47.63;;;25.70;93.90;;;;;;5053477;28;20482;-51
2023/09/06 05:01:12;;;;;;;46.97;44.53;;;25.70;92.50;;;;;;5052764;28;20452;-51
2023/09/06 05:03:40;;;;;;;46.27;44.17;;;25.70;92.40;;;;;;5053453;28;20935;-56
2023/09/06 05:06:08;;;;;;;45.07;43.37;;;25.70;92.40;;;;;;5053448;28;20448;-55
2023/09/06 05:08:35;;;;;;;44.90;43.20;;;25.80;91.90;;;;;;5046383;28;22992;-59
2023/09/06 05:11:03;;;;;;;37.93;36.23;;;25.80;91.10;;;;;;5047217;28;20488;-54
2023/09/06 05:13:30;;;;;;;35.47;33.47;;;25.90;90.40;;;;;;5053218;28;20555;-51
2023/09/06 05:16:01;;;;;;;36.27;34.37;;;25.90;89.90;;;;;;5053072;28;20819;-52
2023/09/06 05:18:28;;;;;;;36.87;35.07;;;26.00;88.70;;;;;;5052970;28;20883;-51
2023/09/06 05:20:55;;;;;;;37.03;35.20;;;25.90;88.00;;;;;;5052853;28;20444;-51
2023/09/06 05:23:24;;;;;;;37.27;35.20;;;25.90;87.00;;;;;;5052834;28;20468;-51
2023/09/06 05:25:51;;;;;;;38.37;36.30;;;25.80;87.00;;;;;;5052997;28;20451;-51
2023/09/06 05:28:18;;;;;;;40.30;38.10;;;25.80;86.60;;;;;;5052829;28;20582;-50
2023/09/06 05:30:46;;;;;;;40.00;37.90;;;25.70;86.40;;;;;;5052742;28;20448;-54
2023/09/06 05:33:14;;;;;;;35.40;33.57;;;25.60;86.20;;;;;;5052814;28;20475;-53
2023/09/06 05:35:42;;;;;;;39.53;37.83;;;25.50;86.30;;;;;;5044640;28;20466;-54
2023/09/06 05:38:09;;;;;;;38.73;36.83;;;25.50;86.40;;;;;;5052814;28;20540;-49
2023/09/06 05:40:38;;;;;;;37.37;35.47;;;25.40;86.40;;;;;;5052621;28;20578;-50
2023/09/06 05:43:05;;;;;;;37.60;35.80;;;25.40;86.60;;;;;;5052399;28;20555;-51
2023/09/06 05:45:32;;;;;;;37.10;35.23;;;25.30;86.70;;;;;;5052594;28;20894;-52
2023/09/06 05:47:59;;;;;;;37.90;36.03;;;25.20;86.90;;;;;;5052598;28;20476;-52
2023/09/06 05:50:27;;;;;;;36.80;35.10;;;25.20;87.00;;;;;;5052385;28;20475;-51
2023/09/06 05:52:54;;;;;;;38.87;36.80;;;25.10;87.20;;;;;;5052279;28;20881;-50
2023/09/06 05:55:21;;;;;;;34.90;33.20;;;25.10;87.30;;;;;;5052221;28;20478;-50
2023/09/06 05:57:50;;;;;;;33.50;31.80;;;25.00;87.30;;;;;;5052484;28;20445;-51
2023/09/06 06:00:17;;;;;;;38.00;36.03;;;25.00;87.30;;;;;;5052255;28;20480;-51
2023/09/06 06:02:44;;;;;;;41.27;39.37;;;24.90;87.40;;;;;;5044080;28;20862;-52
2023/09/06 06:05:12;;;;;;;41.67;39.67;;;24.90;87.60;;;;;;5052202;28;20479;-52
2023/09/06 06:07:39;;;;;;;39.30;37.40;;;24.90;87.70;;;;;;5052252;28;20444;-52
2023/09/06 06:10:09;;;;;;;38.73;36.93;;;24.80;87.90;;;;;;5052076;28;20436;-54
2023/09/06 06:12:37;;;;;;;42.03;40.13;;;24.80;87.90;;;;;;5051736;28;20533;-51
2023/09/06 06:15:08;;;;;;;46.03;44.03;;;24.80;88.00;;;;;;5052107;28;20451;-50
2023/09/06 06:17:35;;;;;;;42.10;40.30;;;24.70;88.20;;;;;;5052011;28;20534;-51
2023/09/06 06:20:03;;;;;;;42.93;41.07;;;24.70;88.10;;;;;;5051792;28;20998;-50
2023/09/06 06:22:30;;;;;;;43.40;41.50;;;24.70;88.20;;;;;;5051562;28;20471;-53
2023/09/06 06:25:01;;;;;;;43.40;41.53;;;24.70;88.30;;;;;;5051910;28;20475;-51
2023/09/06 06:27:28;;;;;;;40.77;38.97;;;24.60;88.20;;;;;;5051149;28;20490;-52
2023/09/06 06:29:55;;;;;;;40.57;38.77;;;24.60;88.30;;;;;;5051731;28;20951;-50
2023/09/06 06:32:23;;;;;;;42.33;40.40;;;24.60;88.40;;;;;;5051433;28;20915;-50
2023/09/06 06:34:53;;;;;;;39.40;37.60;;;24.60;88.60;;;;;;5051794;28;20498;-52
2023/09/06 06:37:20;;;;;;;43.33;41.43;;;24.60;88.60;;;;;;5051641;28;20502;-50
2023/09/06 06:39:47;;;;;;;42.50;40.60;;;24.60;88.40;;;;;;5051602;28;20483;-53
2023/09/06 06:42:14;;;;;;;42.60;40.63;;;24.60;88.60;;;;;;5051303;28;20500;-51
2023/09/06 06:44:46;;;;;;;40.27;38.47;;;24.50;88.40;;;;;;5051491;28;20506;-51
2023/09/06 06:47:13;;;;;;;44.60;42.60;;;24.50;88.70;;;;;;5051579;28;20440;-51
2023/09/06 06:49:41;;;;;;;43.77;41.77;;;24.50;88.70;;;;;;5051456;28;20811;-50
2023/09/06 06:52:08;;;;;;;43.53;41.53;;;24.50;88.80;;;;;;5051206;28;20526;-51
2023/09/06 06:54:35;;;;;;;44.93;42.83;;;24.50;89.00;;;;;;5051400;28;20819;-54
2023/09/06 06:57:02;;;;;;;42.70;40.77;;;24.50;89.10;;;;;;5051376;28;20471;-51
2023/09/06 06:59:29;;;;;;;44.20;42.20;;;24.50;89.10;;;;;;5051256;28;20912;-52
2023/09/06 07:01:56;;;;;;;42.67;40.67;;;24.50;89.20;;;;;;5050994;28;20899;-48
2023/09/06 07:04:23;;;;;;;42.53;40.53;;;24.50;89.30;;;;;;5051013;28;20452;-53
2023/09/06 07:06:51;;;;;;;40.60;38.80;;;24.50;89.40;;;;;;5051318;28;20471;-51
2023/09/06 07:09:18;;;;;;;42.20;40.30;;;24.50;89.60;;;;;;5051293;28;20468;-50
2023/09/06 07:11:45;;;;;;;43.27;41.27;;;24.50;89.60;;;;;;5050984;28;20880;-53
2023/09/06 07:14:12;;;;;;;43.17;41.27;;;24.50;89.50;;;;;;5051223;28;20501;-51
2023/09/06 07:16:40;;;;;;;41.20;39.40;;;24.40;89.40;;;;;;5051170;28;20858;-50
2023/09/06 07:19:07;;;;;;;43.70;41.80;;;24.40;89.40;;;;;;5051079;28;20448;-50
2023/09/06 07:21:34;;;;;;;42.90;41.00;;;24.40;89.30;;;;;;5050583;28;20495;-51
2023/09/06 07:24:02;;;;;;;42.57;40.60;;;24.40;89.40;;;;;;5051059;28;20852;-52
2023/09/06 07:26:29;;;;;;;41.37;39.37;;;24.40;89.50;;;;;;5050908;28;20851;-55
2023/09/06 07:28:56;;;;;;;42.33;40.33;;;24.40;89.50;;;;;;5051047;28;20471;-51
2023/09/06 07:31:23;;;;;;;40.70;38.73;;;24.40;89.50;;;;;;5050708;28;20514;-50
2023/09/06 07:33:50;;;;;;;41.90;40.03;;;24.40;89.60;;;;;;5051076;28;20452;-52
2023/09/06 07:36:18;;;;;;;43.27;40.80;;;24.40;89.70;;;;;;5051001;28;21017;-50
2023/09/06 07:38:45;;;;;;;42.57;40.53;;;24.40;89.80;;;;;;5054746;28;20547;-50
2023/09/06 07:41:14;;;;;;;42.07;40.17;;;24.40;90.00;;;;;;5054872;28;20511;-51
2023/09/06 07:43:41;;;;;;;43.87;41.87;;;24.40;90.00;;;;;;5054903;28;20444;-51
2023/09/06 07:46:12;;;;;;;44.00;42.10;;;24.40;90.00;;;;;;5054993;28;20444;-52
2023/09/06 07:48:39;;;;;;;41.43;39.53;;;24.40;90.10;;;;;;5054943;28;20476;-53
2023/09/06 07:51:06;;;;;;;43.57;41.57;;;24.40;90.20;;;;;;5054663;28;20444;-53
2023/09/06 07:53:33;;;;;;;42.20;40.30;;;24.40;90.00;;;;;;5054534;28;20468;-55
2023/09/06 07:56:00;;;;;;;44.30;42.17;;;24.40;90.10;;;;;;5054674;28;20935;-55
2023/09/06 07:58:29;;;;;;;42.43;40.43;;;24.40;90.00;;;;;;5054722;28;20480;-55
2023/09/06 08:00:56;;;;;;;43.17;41.20;;;24.40;90.10;;;;;;5054431;28;20514;-54
2023/09/06 08:03:22;;;;;;;42.67;40.77;;;24.40;90.00;;;;;;5054546;28;20581;-52
2023/09/06 08:05:49;;;;;;;44.40;42.40;;;24.40;90.10;;;;;;5054630;28;20467;-51
2023/09/06 08:08:16;;;;;;;45.77;43.77;;;24.40;90.10;;;;;;5054572;28;20471;-53
2023/09/06 08:10:43;;;;;;;43.23;41.17;;;24.40;90.10;;;;;;5054272;28;20467;-50
2023/09/06 08:13:10;;;;;;;42.23;40.33;;;24.40;90.10;;;;;;5054250;28;20521;-49
2023/09/06 08:15:38;;;;;;;44.17;42.17;;;24.40;90.10;;;;;;5054322;28;20472;-50
2023/09/06 08:18:08;;;;;;;42.67;40.77;;;24.40;90.20;;;;;;5095118;22;20531;-52
2023/09/06 08:20:35;;;;;;;41.60;39.60;;;24.50;90.20;;;;;;5054340;28;21101;-51
2023/09/06 08:23:04;;;;;;;40.63;38.83;;;24.50;90.20;;;;;;5053873;28;20885;-49
2023/09/06 08:25:31;;;;;;;42.43;40.43;;;24.40;90.20;;;;;;5054104;28;20869;-50
2023/09/06 08:27:58;;;;;;;42.40;40.50;;;24.40;90.10;;;;;;5054186;28;20466;-51
2023/09/06 08:30:25;;;;;;;43.80;41.80;;;24.50;90.20;;;;;;5053896;28;20863;-51
2023/09/06 08:32:53;;;;;;;43.47;41.37;;;24.40;90.30;;;;;;5053925;28;20432;-50
2023/09/06 08:35:23;;;;;;;42.17;40.27;;;24.50;90.40;;;;;;5054057;28;20872;-50
2023/09/06 08:37:50;;;;;;;42.60;40.70;;;24.40;90.30;;;;;;5046006;28;20463;-54
2023/09/06 08:40:18;;;;;;;43.87;41.77;;;24.50;90.40;;;;;;5054099;28;20534;-53
2023/09/06 08:42:46;;;;;;;41.57;39.53;;;24.40;90.40;;;;;;5053597;28;20444;-53
2023/09/06 08:45:14;;;;;;;42.30;40.20;;;24.40;90.30;;;;;;5053864;28;20730;-53
2023/09/06 08:47:42;;;;;;;42.50;40.50;;;24.40;90.30;;;;;;5053570;28;20464;-53
2023/09/06 08:50:11;;;;;;;43.70;41.60;;;24.50;90.40;;;;;;5053140;28;20448;-51
2023/09/06 08:52:41;;;;;;;41.27;39.37;;;24.50;90.40;;;;;;5053603;28;20498;-50
2023/09/06 08:55:09;;;;;;;42.47;40.43;;;24.50;90.40;;;;;;5053586;28;20935;-51
2023/09/06 08:57:36;;;;;;;40.10;38.30;;;24.50;90.50;;;;;;5053650;28;20542;-51
2023/09/06 09:00:05;;;;;;;43.50;41.30;;;24.50;90.50;;;;;;5053538;28;20563;-51
2023/09/06 09:02:32;;;;;;;41.00;39.00;;;24.50;90.50;;;;;;5053222;28;20436;-50
2023/09/06 09:05:00;;;;;;;44.13;42.03;;;24.50;90.40;;;;;;5053575;28;20471;-52
2023/09/06 09:07:30;;;;;;;42.10;40.10;;;24.50;90.40;;;;;;5053332;28;20471;-52
2023/09/06 09:10:00;;;;;;;42.20;40.30;;;24.50;90.50;;;;;;5053507;28;20536;-54
2023/09/06 09:12:28;;;;;;;42.07;40.07;;;24.50;90.50;;;;;;5053007;28;20444;-50
2023/09/06 09:14:56;;;;;;;44.07;42.07;;;24.50;90.40;;;;;;5053440;28;20468;-54
2023/09/06 09:17:24;;;;;;;44.70;42.67;;;24.50;90.50;;;;;;5053320;28;20541;-52
2023/09/06 09:19:51;;;;;;;42.20;40.30;;;24.50;90.50;;;;;;5045159;28;20869;-49
2023/09/06 09:22:23;;;;;;;42.50;40.20;;;24.50;90.50;;;;;;5052834;28;20476;-51
2023/09/06 09:24:58;;;;;;;41.73;39.73;;;24.50;90.50;;;;;;5053336;28;20436;-51
2023/09/06 09:27:27;;;;;;;43.53;41.43;;;24.50;90.50;;;;;;5052910;28;20463;-51
2023/09/06 09:29:54;;;;;;;43.93;41.83;;;24.50;90.90;;;;;;5052944;28;20448;-51
2023/09/06 09:32:21;;;;;;;41.63;39.63;;;24.50;90.50;;;;;;5052771;28;20948;-49
2023/09/06 09:34:48;;;;;;;42.33;40.23;;;24.50;90.60;;;;;;5052724;28;20472;-51
2023/09/06 09:37:15;;;;;;;42.13;40.20;;;24.50;90.60;;;;;;5052751;28;20498;-49
2023/09/06 09:39:42;;;;;;;39.77;37.77;;;24.50;90.70;;;;;;5052624;28;20483;-52
2023/09/06 09:42:12;;;;;;;42.17;40.27;;;24.50;90.70;;;;;;5052435;28;21021;-50
2023/09/06 09:44:40;;;;;;;41.33;39.37;;;24.50;90.70;;;;;;5052666;28;20976;-52
2023/09/06 09:47:12;;;;;;;42.80;40.50;;;24.50;90.60;;;;;;5052477;28;20475;-50
2023/09/06 09:49:41;;;;;;;44.07;41.97;;;24.50;90.70;;;;;;5052508;28;20472;-50
2023/09/06 09:52:12;;;;;;;42.40;40.40;;;24.50;90.70;;;;;;5052395;28;20943;-50
2023/09/06 09:54:42;;;;;;;39.80;37.80;;;24.50;90.70;;;;;;5052588;28;20444;-50
2023/09/06 09:57:11;;;;;;;41.80;39.80;;;24.50;90.70;;;;;;5052303;28;20466;-54
2023/09/06 09:59:40;;;;;;;40.97;39.00;;;24.50;90.70;;;;;;5052350;28;20447;-49
2023/09/06 10:02:15;;;;;;;38.33;36.50;;;24.60;90.70;;;;;;5051054;28;20927;-50
2023/09/06 10:04:43;;;;;;;42.03;39.97;;;24.50;90.60;;;;;;5052215;28;20440;-51
2023/09/06 10:07:14;;;;;;;40.30;38.20;;;24.50;90.70;;;;;;5052169;28;20460;-52
2023/09/06 10:09:42;;;;;;;40.27;38.20;;;24.60;90.70;;;;;;5051959;28;20452;-53
2023/09/06 10:12:12;;;;;;;40.97;38.87;;;24.60;90.60;;;;;;5051816;28;20448;-51
2023/09/06 10:14:40;;;;;;;40.80;38.70;;;24.50;90.60;;;;;;5051870;28;20440;-50
2023/09/06 10:17:08;;;;;;;41.20;39.20;;;24.60;90.60;;;;;;5051816;28;20468;-50
2023/09/06 10:19:36;;;;;;;41.20;39.20;;;24.60;90.60;;;;;;5051834;28;20437;-54
2023/09/06 10:22:04;;;;;;;39.80;37.90;;;24.60;90.50;;;;;;5051792;28;20564;-51
2023/09/06 10:24:34;;;;;;;40.70;38.70;;;24.60;90.50;;;;;;5051857;28;20531;-52
2023/09/06 10:27:02;;;;;;;40.20;38.20;;;24.60;90.50;;;;;;5051762;28;20978;-50
2023/09/06 10:29:32;;;;;;;40.20;38.20;;;24.60;90.50;;;;;;5051628;28;20447;-53
2023/09/06 10:32:04;;;;;;;42.27;40.17;;;24.60;90.50;;;;;;5051667;28;20443;-51
2023/09/06 10:34:36;;;;;;;42.00;39.80;;;24.60;90.50;;;;;;5051617;28;20440;-52
2023/09/06 10:37:06;;;;;;;41.87;39.87;;;24.60;90.40;;;;;;5051627;28;21006;-51
2023/09/06 10:39:33;;;;;;;41.83;39.83;;;24.60;90.40;;;;;;5051554;28;20454;-50
2023/09/06 10:42:19;;;;;;;42.00;40.00;;;24.60;90.40;;;;;;5051407;28;20480;-50
2023/09/06 10:45:10;;;;;;;40.50;38.40;;;24.60;90.30;;;;;;5051483;28;20444;-53
2023/09/06 10:47:38;;;;;;;40.83;38.83;;;24.60;90.30;;;;;;5051423;28;20514;-50
2023/09/06 10:50:10;;;;;;;41.27;39.23;;;24.60;90.30;;;;;;5051533;28;20448;-52
2023/09/06 10:52:45;;;;;;;42.37;40.37;;;24.60;90.20;;;;;;5051312;28;20448;-51
2023/09/06 10:55:17;;;;;;;42.27;40.27;;;24.60;90.20;;;;;;5051510;28;20459;-50
2023/09/06 10:57:58;;;;;;;42.70;40.60;;;24.60;90.20;;;;;;5051218;28;20495;-52
2023/09/06 11:00:30;;;;;;;40.93;38.83;;;24.60;90.20;;;;;;5051331;28;20491;-49
2023/09/06 11:03:19;;;;;;;41.20;39.20;;;24.60;90.10;;;;;;5043609;28;20524;-50
2023/09/06 11:05:52;;;;;;;42.57;40.57;;;24.60;90.10;;;;;;5051222;28;20518;-50
2023/09/06 11:08:38;;;;;;;42.80;40.50;;;24.60;90.00;;;;;;5051214;28;21048;-51
2023/09/06 11:11:08;;;;;;;44.87;42.70;;;24.60;90.00;;;;;;5044688;28;21109;-52
2023/09/06 11:13:36;;;;;;;43.00;41.00;;;24.70;89.90;;;;;;5050824;28;20924;-54
2023/09/06 11:16:05;;;;;;;44.20;42.00;;;24.70;89.80;;;;;;5051246;28;20472;-54
2023/09/06 11:18:43;;;;;;;42.73;40.73;;;24.70;89.80;;;;;;5050978;28;20868;-52
2023/09/06 11:21:10;;;;;;;42.27;40.27;;;24.70;89.60;;;;;;5050817;28;20502;-51
2023/09/06 11:23:45;;;;;;;42.77;40.77;;;24.70;89.60;;;;;;5050864;28;20468;-50
2023/09/06 11:26:12;;;;;;;44.03;41.93;;;24.70;89.50;;;;;;5050996;28;20525;-53
2023/09/06 11:28:41;;;;;;;45.20;43.00;;;24.70;89.30;;;;;;5051099;28;20440;-50
2023/09/06 11:31:21;;;;;;;41.67;39.57;;;24.70;89.20;;;;;;5050843;28;20502;-49
2023/09/06 11:33:53;;;;;;;43.30;41.20;;;24.70;89.10;;;;;;5050911;28;20472;-49
2023/09/06 11:36:21;;;;;;;45.63;43.27;;;24.70;89.00;;;;;;5050872;28;20467;-50
2023/09/06 11:38:48;;;;;;;43.67;41.57;;;24.70;88.90;;;;;;5050798;28;20871;-53
2023/09/06 11:41:16;;;;;;;42.70;40.70;;;24.70;88.90;;;;;;5050579;28;20510;-51
2023/09/06 11:43:48;;;;;;;44.00;41.90;;;24.70;88.80;;;;;;5050781;28;20448;-51
2023/09/06 11:46:17;;;;;;;42.77;40.67;;;24.70;88.70;;;;;;5050739;28;20444;-50
2023/09/06 11:48:47;;;;;;;43.50;41.30;;;24.80;88.60;;;;;;5050778;28;20448;-50
2023/09/06 11:51:18;;;;;;;43.13;40.93;;;24.80;88.60;;;;;;5050663;28;20968;-51
2023/09/06 11:53:53;;;;;;;44.03;41.93;;;24.80;88.60;;;;;;5050852;28;20522;-49
2023/09/06 11:56:26;;;;;;;44.77;42.57;;;24.80;88.40;;;;;;5050698;28;20444;-51
2023/09/06 11:58:54;;;;;;;44.83;42.73;;;24.90;88.40;;;;;;5050720;28;20440;-52
2023/09/06 12:01:22;;;;;;;45.67;43.47;;;24.80;88.30;;;;;;5050405;28;20486;-49
2023/09/06 12:03:53;;;;;;;44.83;42.73;;;24.80;88.30;;;;;;5050559;28;20448;-50
2023/09/06 12:06:20;;;;;;;44.17;41.97;;;24.90;88.10;;;;;;5050580;28;20444;-51
2023/09/06 12:08:47;;;;;;;44.83;42.63;;;24.90;88.10;;;;;;5050567;28;20792;-50
2023/09/06 12:11:21;;;;;;;43.53;41.40;;;24.90;88.00;;;;;;5050487;28;20502;-50
2023/09/06 12:13:48;;;;;;;43.80;41.60;;;24.90;87.90;;;;;;5050599;28;20516;-50
2023/09/06 12:16:16;;;;;;;44.90;42.77;;;24.90;87.90;;;;;;5050388;28;20444;-50
2023/09/06 12:18:43;;;;;;;50.93;48.53;;;24.90;87.80;;;;;;5050474;28;20946;-49
2023/09/06 12:21:11;;;;;;;46.43;44.13;;;24.90;87.70;;;;;;5050289;28;20512;-51
2023/09/06 12:23:39;;;;;;;43.37;41.27;;;24.90;87.60;;;;;;5050439;28;20861;-50
2023/09/06 12:26:06;;;;;;;45.30;43.10;;;24.90;87.60;;;;;;5054095;28;20448;-50
2023/09/06 12:28:33;;;;;;;45.10;42.90;;;25.00;87.60;;;;;;5053991;28;20471;-52
2023/09/06 12:31:02;;;;;;;46.43;44.23;;;25.00;87.50;;;;;;5053674;28;20475;-51
2023/09/06 12:33:29;;;;;;;42.97;40.87;;;25.00;87.50;;;;;;5053894;28;20451;-51
2023/09/06 12:36:00;;;;;;;41.70;39.60;;;25.00;87.40;;;;;;5054116;28;21109;-49
2023/09/06 12:38:30;;;;;;;43.97;41.80;;;25.00;87.30;;;;;;5053904;28;20504;-50